createdAt,value
2019-05-16T00:00:19.230Z,100958.70
2019-05-16T00:02:51.266Z,100950.09
2019-05-16T00:05:23.193Z,100950.55
2019-05-16T00:07:55.056Z,100946.77
2019-05-16T00:10:28.196Z,100942.86
2019-05-16T00:13:00.115Z,100952.20
2019-05-16T00:15:31.977Z,100949.16
2019-05-16T00:18:03.828Z,100946.02
2019-05-16T00:20:35.718Z,100945.27
2019-05-16T00:23:07.987Z,100941.77
2019-05-16T00:25:39.857Z,100938.65
2019-05-16T00:28:11.747Z,100934.23
2019-05-16T00:30:43.628Z,100927.08
2019-05-16T00:33:15.504Z,100921.20
2019-05-16T00:35:48.161Z,100917.25
2019-05-16T00:38:20.983Z,100920.78
2019-05-16T00:40:52.863Z,100920.57
2019-05-16T00:43:24.674Z,100920.07
2019-05-16T00:45:58.734Z,100918.85
2019-05-16T00:48:30.320Z,100912.16
2019-05-16T00:51:02.373Z,100913.61
2019-05-16T00:53:34.339Z,100901.00
2019-05-16T00:56:07.927Z,100904.38
2019-05-16T00:58:39.884Z,100900.53
2019-05-16T01:01:11.818Z,100900.53
2019-05-16T01:03:43.697Z,100896.62
2019-05-16T01:06:19.913Z,100890.17
2019-05-16T01:08:49.132Z,100896.47
2019-05-16T01:11:20.996Z,100896.93
2019-05-16T01:13:52.829Z,100900.91
2019-05-16T01:16:24.636Z,100892.98
2019-05-16T01:18:58.854Z,100891.73
2019-05-16T01:21:30.037Z,100891.36
2019-05-16T01:24:02.321Z,100892.86
2019-05-16T01:26:34.265Z,100885.44
2019-05-16T01:29:08.127Z,100882.99
2019-05-16T01:31:39.693Z,100880.55
2019-05-16T01:34:11.548Z,100879.12
2019-05-16T01:36:43.343Z,100881.72
2019-05-16T01:39:15.210Z,100881.22
2019-05-16T01:41:48.117Z,100872.92
2019-05-16T01:44:20.040Z,100877.58
2019-05-16T01:46:51.907Z,100875.76
2019-05-16T01:49:23.765Z,100867.45
2019-05-16T01:51:57.735Z,100866.20
2019-05-16T01:54:29.207Z,100864.63
2019-05-16T01:57:01.053Z,100860.59
2019-05-16T01:59:32.917Z,100856.08
2019-05-16T02:02:04.723Z,100862.21
2019-05-16T02:04:37.990Z,100858.55
2019-05-16T02:07:11.101Z,100849.64
2019-05-16T02:09:42.989Z,100850.11
2019-05-16T02:12:14.900Z,100843.75
2019-05-16T02:14:48.077Z,100844.51
2019-05-16T02:17:21.036Z,100847.47
2019-05-16T02:19:53.606Z,100841.21
2019-05-16T02:22:25.559Z,100842.55
2019-05-16T02:24:58.529Z,100842.45
2019-05-16T02:27:30.407Z,100843.07
2019-05-16T02:30:02.279Z,100840.00
2019-05-16T02:32:34.257Z,100842.84
2019-05-16T02:35:06.300Z,100848.09
2019-05-16T02:37:41.774Z,100840.52
2019-05-16T02:40:12.514Z,100836.84
2019-05-16T02:42:44.536Z,100839.04
2019-05-16T02:45:23.912Z,100840.28
2019-05-16T02:47:51.457Z,100835.88
2019-05-16T02:50:23.325Z,100831.47
2019-05-16T02:52:55.132Z,100833.93
2019-05-16T02:55:26.919Z,100831.13
2019-05-16T02:58:00.838Z,100829.15
2019-05-16T03:00:42.068Z,100818.73
2019-05-16T03:03:12.063Z,100818.73
2019-05-16T03:05:44.488Z,100816.92
2019-05-16T03:08:16.406Z,100810.28
2019-05-16T03:10:51.765Z,100815.20
2019-05-16T03:13:23.929Z,100807.34
2019-05-16T03:15:56.434Z,100810.75
2019-05-16T03:18:31.011Z,100807.45
2019-05-16T03:21:02.805Z,100810.88
2019-05-16T03:23:34.790Z,100812.47
2019-05-16T03:26:06.815Z,100810.28
2019-05-16T03:28:41.329Z,100821.90
2019-05-16T03:31:15.251Z,100819.24
2019-05-16T03:33:56.530Z,100822.78
2019-05-16T03:36:25.123Z,100814.09
2019-05-16T03:38:53.299Z,100818.50
2019-05-16T03:41:25.170Z,100807.72
2019-05-16T03:43:57.052Z,100804.05
2019-05-16T03:46:30.872Z,100800.25
2019-05-16T03:49:02.808Z,100798.53
2019-05-16T03:51:34.846Z,100804.56
2019-05-16T03:54:06.754Z,100802.94
2019-05-16T03:56:40.815Z,100809.68
2019-05-16T03:59:12.416Z,100806.37
2019-05-16T04:01:44.384Z,100804.80
2019-05-16T04:04:16.266Z,100809.48
2019-05-16T04:06:50.674Z,100810.92
2019-05-16T04:09:21.725Z,100808.87
2019-05-16T04:11:53.578Z,100801.76
2019-05-16T04:14:25.385Z,100802.23
2019-05-16T04:17:01.605Z,100799.80
2019-05-16T04:19:33.794Z,100795.39
2019-05-16T04:22:10.460Z,100794.15
2019-05-16T04:24:42.441Z,100795.50
2019-05-16T04:27:14.317Z,100794.05
2019-05-16T04:29:47.096Z,100791.08
2019-05-16T04:32:20.824Z,100792.56
2019-05-16T04:34:52.537Z,100791.08
2019-05-16T04:37:26.425Z,100788.28
2019-05-16T04:40:00.908Z,100788.52
2019-05-16T04:42:31.418Z,100787.28
2019-05-16T04:45:04.284Z,100784.61
2019-05-16T04:47:36.154Z,100784.11
2019-05-16T04:50:11.361Z,100790.97
2019-05-16T04:52:42.283Z,100781.20
2019-05-16T04:55:14.156Z,100790.86
2019-05-16T04:57:46.027Z,100786.69
2019-05-16T05:00:21.236Z,100785.11
2019-05-16T05:02:52.658Z,100786.59
2019-05-16T05:05:24.537Z,100784.50
2019-05-16T05:07:56.417Z,100786.08
2019-05-16T05:10:31.033Z,100788.17
2019-05-16T05:13:01.791Z,100793.19
2019-05-16T05:15:34.286Z,100795.51
2019-05-16T05:18:06.185Z,100789.14
2019-05-16T05:20:40.842Z,100792.58
2019-05-16T05:23:11.582Z,100788.03
2019-05-16T05:25:43.399Z,100792.08
2019-05-16T05:28:15.212Z,100795.04
2019-05-16T05:30:47.467Z,100792.69
2019-05-16T05:33:21.035Z,100797.73
2019-05-16T05:35:52.852Z,100797.47
2019-05-16T05:38:24.730Z,100796.00
2019-05-16T05:40:56.534Z,100797.61
2019-05-16T05:43:30.591Z,100793.70
2019-05-16T05:46:02.897Z,100798.95
2019-05-16T05:48:34.774Z,100791.84
2019-05-16T05:51:06.861Z,100795.89
2019-05-16T05:53:40.184Z,100795.76
2019-05-16T05:56:12.150Z,100796.02
2019-05-16T05:58:44.069Z,100791.98
2019-05-16T06:01:17.014Z,100794.54
2019-05-16T06:03:50.491Z,100792.58
2019-05-16T06:06:23.480Z,100796.27
2019-05-16T06:08:55.446Z,100802.13
2019-05-16T06:11:27.269Z,100801.52
2019-05-16T06:14:00.468Z,100796.50
2019-05-16T06:16:32.429Z,100795.66
2019-05-16T06:19:04.236Z,100798.22
2019-05-16T06:21:36.063Z,100798.72
2019-05-16T06:24:10.521Z,100793.20
2019-05-16T06:26:41.495Z,100794.58
2019-05-16T06:29:13.391Z,100794.34
2019-05-16T06:31:45.279Z,100791.00
2019-05-16T06:34:17.162Z,100787.81
2019-05-16T06:36:50.877Z,100789.41
2019-05-16T06:39:22.621Z,100778.52
2019-05-16T06:41:54.416Z,100774.34
2019-05-16T06:44:26.343Z,100764.40
2019-05-16T06:47:14.998Z,100771.14
2019-05-16T06:49:32.044Z,100767.83
2019-05-16T06:52:04.192Z,100775.17
2019-05-16T06:54:36.064Z,100770.28
2019-05-16T06:57:10.415Z,100768.68
2019-05-16T06:59:43.363Z,100771.00
2019-05-16T07:02:29.705Z,100771.75
2019-05-16T07:04:51.368Z,100782.66
2019-05-16T07:07:23.366Z,100787.28
2019-05-16T07:10:00.742Z,100786.41
2019-05-16T07:12:31.492Z,100784.79
2019-05-16T07:15:02.500Z,100777.56
2019-05-16T07:17:34.752Z,100774.58
2019-05-16T07:20:10.185Z,100773.57
2019-05-16T07:22:41.259Z,100772.47
2019-05-16T07:25:14.764Z,100764.23
2019-05-16T07:27:46.910Z,100757.19
2019-05-16T07:30:19.903Z,100762.77
2019-05-16T07:32:51.910Z,100762.77
2019-05-16T07:35:23.796Z,100760.64
2019-05-16T07:37:55.608Z,100757.78
2019-05-16T07:40:27.439Z,100765.02
2019-05-16T07:43:00.107Z,100762.41
2019-05-16T07:45:32.042Z,100766.90
2019-05-16T07:48:03.972Z,100762.20
2019-05-16T07:50:35.844Z,100762.20
2019-05-16T07:53:10.443Z,100764.75
2019-05-16T07:55:41.401Z,100763.49
2019-05-16T07:58:13.421Z,100749.59
2019-05-16T08:00:52.662Z,100766.31
2019-05-16T08:03:19.944Z,100763.77
2019-05-16T08:05:51.948Z,100753.92
2019-05-16T08:08:24.697Z,100760.71
2019-05-16T08:10:56.678Z,100764.23
2019-05-16T08:13:30.613Z,100766.57
2019-05-16T08:16:02.050Z,100761.02
2019-05-16T08:18:33.919Z,100762.36
2019-05-16T08:21:05.918Z,100763.51
2019-05-16T08:23:38.696Z,100766.39
2019-05-16T08:26:11.411Z,100771.80
2019-05-16T08:28:43.290Z,100768.73
2019-05-16T08:31:15.107Z,100772.64
2019-05-16T08:33:46.968Z,100769.52
2019-05-16T08:36:21.007Z,100776.79
2019-05-16T08:38:52.327Z,100777.52
2019-05-16T08:41:24.188Z,100778.51
2019-05-16T08:43:56.019Z,100785.91
2019-05-16T08:46:31.902Z,100790.92
2019-05-16T08:49:01.470Z,100804.30
2019-05-16T08:51:33.785Z,100800.51
2019-05-16T08:54:06.216Z,100799.27
2019-05-16T08:56:43.764Z,100804.84
2019-05-16T08:59:13.498Z,100803.13
2019-05-16T09:04:24.389Z,100807.36
2019-05-16T09:06:53.456Z,100813.95
2019-05-16T09:09:41.653Z,100810.32
2019-05-16T09:10:42.043Z,100813.49
2019-05-16T09:11:58.958Z,100809.71
2019-05-16T09:14:35.245Z,100811.84
2019-05-16T09:17:07.429Z,100812.30
2019-05-16T09:19:39.677Z,100818.53
2019-05-16T09:22:11.559Z,100827.53
2019-05-16T09:24:43.476Z,100817.23
2019-05-16T09:27:17.837Z,100824.31
2019-05-16T09:29:59.621Z,100827.89
2019-05-16T09:32:36.970Z,100824.56
2019-05-16T09:35:09.124Z,100824.67
2019-05-16T09:37:41.623Z,100833.08
2019-05-16T09:40:17.030Z,100824.20
2019-05-16T09:42:48.278Z,100822.73
2019-05-16T09:45:20.174Z,100826.79
2019-05-16T09:47:52.053Z,100821.19
2019-05-16T09:50:26.647Z,100821.19
2019-05-16T09:52:58.496Z,100831.15
2019-05-16T09:55:30.394Z,100830.64
2019-05-16T09:58:07.309Z,100830.64
2019-05-16T10:00:39.484Z,100835.84
2019-05-16T10:03:12.365Z,100824.05
2019-05-16T10:05:46.747Z,100824.05
2019-05-16T10:08:20.505Z,100822.70
2019-05-16T10:10:56.871Z,100816.45
2019-05-16T10:13:29.860Z,100820.86
2019-05-16T10:16:02.561Z,100820.91
2019-05-16T10:18:37.012Z,100824.53
2019-05-16T10:21:10.868Z,100814.95
2019-05-16T10:23:46.949Z,100816.23
2019-05-16T10:26:20.620Z,100829.69
2019-05-16T10:28:52.983Z,100830.67
2019-05-16T10:31:38.533Z,100827.20
2019-05-16T10:34:02.082Z,100829.39
2019-05-16T10:36:37.379Z,100823.95
2019-05-16T10:39:11.642Z,100831.62
2019-05-16T10:41:46.710Z,100825.62
2019-05-16T10:44:18.941Z,100825.38
2019-05-16T10:46:50.960Z,100823.58
2019-05-16T10:49:37.299Z,100823.58
2019-05-16T10:52:00.396Z,100823.95
2019-05-16T10:54:32.672Z,100822.95
2019-05-16T10:57:07.781Z,100819.97
2019-05-16T11:00:01.877Z,100823.87
2019-05-16T11:02:13.545Z,100825.37
2019-05-16T11:04:57.447Z,100829.42
2019-05-16T11:07:19.252Z,100831.97
2019-05-16T11:09:58.525Z,100835.55
2019-05-16T11:12:45.452Z,100830.96
2019-05-16T11:14:59.093Z,100826.64
2019-05-16T11:17:30.902Z,100827.95
2019-05-16T11:20:02.764Z,100830.45
2019-05-16T11:22:36.993Z,100830.45
2019-05-16T11:25:20.773Z,100829.97
2019-05-16T11:27:42.073Z,100830.83
2019-05-16T11:30:14.226Z,100831.89
2019-05-16T11:32:46.937Z,100836.59
2019-05-16T11:35:19.023Z,100842.37
2019-05-16T11:37:50.903Z,100844.34
2019-05-16T11:40:22.993Z,100841.11
2019-05-16T11:43:08.983Z,100839.55
2019-05-16T11:45:28.419Z,100841.44
2019-05-16T11:48:00.286Z,100845.08
2019-05-16T11:50:32.181Z,100855.48
2019-05-16T11:53:04.086Z,100846.77
2019-05-16T11:55:50.094Z,100844.87
2019-05-16T11:58:09.625Z,100851.09
2019-05-16T12:00:41.512Z,100845.41
2019-05-16T12:03:13.365Z,100849.25
2019-05-16T12:05:48.320Z,100851.95
2019-05-16T12:08:18.656Z,100849.61
2019-05-16T12:10:50.480Z,100852.23
2019-05-16T12:13:32.350Z,100847.57
2019-05-16T12:15:56.639Z,100848.48
2019-05-16T12:18:28.533Z,100849.08
2019-05-16T12:21:00.336Z,100844.14
2019-05-16T12:23:32.199Z,100841.20
2019-05-16T12:26:03.986Z,100842.81
2019-05-16T12:28:36.147Z,100845.05
2019-05-16T12:31:08.160Z,100842.84
2019-05-16T12:33:44.160Z,100845.19
2019-05-16T12:36:18.732Z,100843.95
2019-05-16T12:38:50.562Z,100841.84
2019-05-16T12:41:22.430Z,100842.59
2019-05-16T12:43:57.316Z,100842.84
2019-05-16T12:46:28.071Z,100840.91
2019-05-16T12:48:59.977Z,100835.33
2019-05-16T12:51:31.924Z,100840.03
2019-05-16T12:54:03.798Z,100834.07
2019-05-16T12:56:37.752Z,100840.05
2019-05-16T12:59:09.245Z,100837.70
2019-05-16T13:01:41.108Z,100838.13
2019-05-16T13:04:12.984Z,100837.41
2019-05-16T13:06:46.951Z,100828.93
2019-05-16T13:09:18.775Z,100833.64
2019-05-16T13:11:50.736Z,100822.59
2019-05-16T13:14:22.519Z,100828.89
2019-05-16T13:16:54.380Z,100825.95
2019-05-16T13:19:33.435Z,100832.08
2019-05-16T13:21:59.814Z,100825.16
2019-05-16T13:24:31.812Z,100825.75
2019-05-16T13:27:03.616Z,100824.02
2019-05-16T13:29:37.038Z,100819.80
2019-05-16T13:32:09.199Z,100828.44
2019-05-16T13:34:41.124Z,100820.14
2019-05-16T13:37:12.996Z,100819.07
2019-05-16T13:39:47.630Z,100817.73
2019-05-16T13:42:19.364Z,100820.83
2019-05-16T13:44:51.160Z,100818.33
2019-05-16T13:47:23.081Z,100818.61
2019-05-16T13:49:54.974Z,100817.69
2019-05-16T13:52:28.293Z,100819.80
2019-05-16T13:55:00.285Z,100821.39
2019-05-16T13:57:32.148Z,100826.59
2019-05-16T14:00:04.153Z,100824.11
2019-05-16T14:02:38.013Z,100826.45
2019-05-16T14:05:10.259Z,100823.67
2019-05-16T14:07:42.122Z,100822.72
2019-05-16T14:10:18.384Z,100823.95
2019-05-16T14:12:50.446Z,100821.29
2019-05-16T14:15:22.590Z,100815.67
2019-05-16T14:17:56.739Z,100821.31
2019-05-16T14:20:28.045Z,100819.24
2019-05-16T14:23:01.718Z,100824.59
2019-05-16T14:25:33.480Z,100825.80
2019-05-16T14:28:07.685Z,100827.42
2019-05-16T14:30:39.150Z,100820.30
2019-05-16T14:33:13.952Z,100822.83
2019-05-16T14:35:47.021Z,100820.80
2019-05-16T14:38:18.206Z,100820.60
2019-05-16T14:40:50.468Z,100813.69
2019-05-16T14:43:22.355Z,100817.63
2019-05-16T14:45:57.145Z,100811.78
2019-05-16T14:48:28.627Z,100813.07
2019-05-16T14:51:00.430Z,100812.94
2019-05-16T14:53:32.301Z,100814.22
2019-05-16T14:56:07.092Z,100823.66
2019-05-16T14:58:38.736Z,100814.64
2019-05-16T15:01:10.597Z,100815.88
2019-05-16T15:03:42.487Z,100818.69
2019-05-16T15:06:17.971Z,100822.34
2019-05-16T15:08:47.982Z,100817.27
2019-05-16T15:11:19.765Z,100820.69
2019-05-16T15:13:51.556Z,100822.66
2019-05-16T15:16:23.365Z,100824.84
2019-05-16T15:18:57.495Z,100820.14
2019-05-16T15:21:28.751Z,100823.58
2019-05-16T15:24:00.615Z,100823.30
2019-05-16T15:26:32.478Z,100830.08
2019-05-16T15:29:08.183Z,100831.36
2019-05-16T15:31:39.521Z,100827.72
2019-05-16T15:34:11.706Z,100832.58
2019-05-16T15:36:43.590Z,100831.94
2019-05-16T15:39:16.983Z,100831.48
2019-05-16T15:41:49.401Z,100833.48
2019-05-16T15:44:21.272Z,100836.28
2019-05-16T15:46:53.160Z,100834.13
2019-05-16T15:49:26.508Z,100838.80
2019-05-16T15:51:58.443Z,100834.09
2019-05-16T15:54:30.945Z,100833.50
2019-05-16T15:57:02.841Z,100835.78
2019-05-16T15:59:37.381Z,100834.50
2019-05-16T16:02:08.547Z,100828.00
2019-05-16T16:04:40.422Z,100831.36
2019-05-16T16:07:13.275Z,100829.80
2019-05-16T16:09:47.028Z,100832.64
2019-05-16T16:12:18.741Z,100834.87
2019-05-16T16:14:50.605Z,100836.95
2019-05-16T16:17:22.496Z,100835.23
2019-05-16T16:19:57.933Z,100841.20
2019-05-16T16:22:29.452Z,100833.44
2019-05-16T16:25:01.825Z,100834.34
2019-05-16T16:27:33.821Z,100838.85
2019-05-16T16:30:06.976Z,100843.99
2019-05-16T16:32:39.374Z,100841.20
2019-05-16T16:35:13.986Z,100846.11
2019-05-16T16:37:46.924Z,100849.52
2019-05-16T16:40:18.725Z,100849.37
2019-05-16T16:42:50.654Z,100853.52
2019-05-16T16:45:22.587Z,100855.66
2019-05-16T16:47:57.097Z,100858.01
2019-05-16T16:50:28.469Z,100858.37
2019-05-16T16:53:00.825Z,100854.43
2019-05-16T16:55:32.709Z,100861.75
2019-05-16T16:58:09.117Z,100857.09
2019-05-16T17:00:38.690Z,100850.23
2019-05-16T17:03:11.369Z,100847.13
2019-05-16T17:05:43.340Z,100845.70
2019-05-16T17:08:16.789Z,100841.56
2019-05-16T17:10:49.847Z,100849.52
2019-05-16T17:13:21.715Z,100851.95
2019-05-16T17:15:56.833Z,100844.95
2019-05-16T17:18:28.132Z,100847.89
2019-05-16T17:20:59.951Z,100853.90
2019-05-16T17:23:33.754Z,100850.78
2019-05-16T17:26:07.530Z,100847.39
2019-05-16T17:28:39.485Z,100842.75
2019-05-16T17:31:11.382Z,100845.17
2019-05-16T17:33:43.246Z,100848.56
2019-05-16T17:36:17.226Z,100850.67
2019-05-16T17:38:48.810Z,100856.77
2019-05-16T17:41:20.664Z,100854.70
2019-05-16T17:43:53.529Z,100865.34
2019-05-16T17:46:34.791Z,100866.70
2019-05-16T17:48:58.943Z,100863.48
2019-05-16T17:51:30.815Z,100861.58
2019-05-16T17:54:02.689Z,100865.41
2019-05-16T17:56:36.871Z,100869.47
2019-05-16T17:59:08.217Z,100866.99
2019-05-16T18:01:40.083Z,100871.78
2019-05-16T18:04:12.048Z,100862.12
2019-05-16T18:06:43.915Z,100868.74
2019-05-16T18:09:17.174Z,100864.68
2019-05-16T18:11:49.114Z,100863.75
2019-05-16T18:14:20.975Z,100866.89
2019-05-16T18:16:58.751Z,100866.16
2019-05-16T18:19:26.557Z,100865.56
2019-05-16T18:21:58.484Z,100864.99
2019-05-16T18:24:30.271Z,100868.27
2019-05-16T18:27:02.068Z,100858.22
2019-05-16T18:29:33.923Z,100867.79
2019-05-16T18:32:07.040Z,100870.05
2019-05-16T18:34:39.936Z,100874.83
2019-05-16T18:37:11.831Z,100871.28
2019-05-16T18:39:43.699Z,100869.41
2019-05-16T18:42:16.758Z,100879.46
2019-05-16T18:44:48.851Z,100869.41
2019-05-16T18:47:20.704Z,100873.11
2019-05-16T18:49:52.578Z,100880.16
2019-05-16T18:52:24.438Z,100879.34
2019-05-16T18:54:57.659Z,100875.52
2019-05-16T18:57:29.544Z,100879.58
2019-05-16T19:00:01.431Z,100882.41
2019-05-16T19:02:33.486Z,100889.62
2019-05-16T19:05:06.924Z,100890.98
2019-05-16T19:07:39.196Z,100894.41
2019-05-16T19:10:11.400Z,100895.77
2019-05-16T19:12:43.277Z,100893.06
2019-05-16T19:15:17.523Z,100891.70
2019-05-16T19:17:49.023Z,100889.62
2019-05-16T19:20:21.105Z,100892.42
2019-05-16T19:22:52.992Z,100891.80
2019-05-16T19:25:26.928Z,100890.89
2019-05-16T19:27:58.640Z,100898.38
2019-05-16T19:30:30.731Z,100895.77
2019-05-16T19:33:02.612Z,100892.55
2019-05-16T19:35:34.575Z,100888.39
2019-05-16T19:38:07.934Z,100893.81
2019-05-16T19:40:40.453Z,100889.03
2019-05-16T19:43:12.599Z,100879.97
2019-05-16T19:45:46.522Z,100882.97
2019-05-16T19:48:18.192Z,100881.81
2019-05-16T19:50:50.077Z,100879.89
2019-05-16T19:53:21.946Z,100874.06
2019-05-16T19:55:56.083Z,100872.77
2019-05-16T19:58:27.358Z,100869.07
2019-05-16T20:00:59.146Z,100874.02
2019-05-16T20:03:30.999Z,100870.42
2019-05-16T20:06:02.854Z,100866.23
2019-05-16T20:08:37.224Z,100866.87
2019-05-16T20:11:08.719Z,100868.58
2019-05-16T20:13:40.806Z,100869.52
2019-05-16T20:16:12.888Z,100866.81
2019-05-16T20:18:46.619Z,100870.36
2019-05-16T20:21:18.593Z,100872.69
2019-05-16T20:23:50.709Z,100869.01
2019-05-16T20:26:23.741Z,100871.33
2019-05-16T20:28:59.201Z,100866.02
2019-05-16T20:31:29.725Z,100861.59
2019-05-16T20:34:01.603Z,100863.66
2019-05-16T20:36:33.839Z,100858.88
2019-05-16T20:39:08.581Z,100856.80
2019-05-16T20:41:40.604Z,100861.08
2019-05-16T20:44:12.837Z,100859.61
2019-05-16T20:46:46.814Z,100860.81
2019-05-16T20:49:18.199Z,100859.61
2019-05-16T20:51:50.288Z,100859.53
2019-05-16T20:54:29.837Z,100858.70
2019-05-16T20:57:01.860Z,100855.62
2019-05-16T20:59:33.718Z,100859.48
2019-05-16T21:02:06.823Z,100866.09
2019-05-16T21:04:39.078Z,100859.59
2019-05-16T21:07:11.539Z,100857.46
2019-05-16T21:09:43.609Z,100854.09
2019-05-16T21:12:17.239Z,100856.41
2019-05-16T21:14:50.270Z,100854.39
2019-05-16T21:17:22.511Z,100850.84
2019-05-16T21:19:54.335Z,100853.77
2019-05-16T21:22:27.377Z,100849.45
2019-05-16T21:24:59.297Z,100844.64
2019-05-16T21:27:31.167Z,100845.84
2019-05-16T21:30:03.050Z,100845.67
2019-05-16T21:32:36.559Z,100845.67
2019-05-16T21:35:08.830Z,100838.29
2019-05-16T21:37:40.894Z,100839.64
2019-05-16T21:40:12.898Z,100841.42
2019-05-16T21:42:44.752Z,100829.62
2019-05-16T21:45:16.723Z,100840.27
2019-05-16T21:47:48.604Z,100840.37
2019-05-16T21:50:20.471Z,100835.85
2019-05-16T21:52:52.463Z,100837.25
2019-05-16T21:55:24.421Z,100822.91
2019-05-16T21:57:57.502Z,100822.91
2019-05-16T22:00:37.517Z,100823.68
2019-05-16T22:03:09.716Z,100830.39
2019-05-16T22:05:41.790Z,100828.88
2019-05-16T22:08:13.825Z,100823.78
2019-05-16T22:10:46.840Z,100821.85
2019-05-16T22:13:18.994Z,100821.44
2019-05-16T22:15:50.994Z,100820.30
2019-05-16T22:18:23.190Z,100824.36
2019-05-16T22:20:57.115Z,100818.16
2019-05-16T22:23:29.045Z,100818.16
2019-05-16T22:26:00.900Z,100823.63
2019-05-16T22:28:33.769Z,100825.97
2019-05-16T22:31:07.448Z,100827.58
2019-05-16T22:33:39.169Z,100827.98
2019-05-16T22:36:11.668Z,100825.66
2019-05-16T22:38:43.777Z,100813.75
2019-05-16T22:41:17.249Z,100825.97
2019-05-16T22:43:49.680Z,100822.84
2019-05-16T22:46:21.539Z,100822.84
2019-05-16T22:48:53.530Z,100829.60
2019-05-16T22:51:27.173Z,100815.20
2019-05-16T22:53:59.264Z,100824.20
2019-05-16T22:56:31.221Z,100827.80
2019-05-16T22:59:03.083Z,100829.98
2019-05-16T23:01:37.651Z,100833.41
2019-05-16T23:04:09.177Z,100833.39
2019-05-16T23:06:41.190Z,100834.38
2019-05-16T23:09:13.165Z,100827.79
2019-05-16T23:11:45.098Z,100830.88
2019-05-16T23:14:17.449Z,100823.13
2019-05-16T23:16:49.379Z,100812.41
2019-05-16T23:19:21.703Z,100824.92
2019-05-16T23:21:56.710Z,100827.33
2019-05-16T23:24:27.896Z,100821.29
2019-05-16T23:26:59.730Z,100828.34
2019-05-16T23:29:32.338Z,100826.45
2019-05-16T23:32:07.157Z,100822.18
2019-05-16T23:34:38.772Z,100818.44
2019-05-16T23:37:10.699Z,100825.34
2019-05-16T23:39:42.869Z,100816.83
2019-05-16T23:42:14.750Z,100816.20
2019-05-16T23:44:47.313Z,100815.73
2019-05-16T23:47:19.380Z,100800.14
2019-05-16T23:49:51.325Z,100802.00
2019-05-16T23:52:23.288Z,100800.77
2019-05-16T23:54:56.992Z,100789.42
2019-05-16T23:57:28.640Z,100793.48
